createdAt,value
2018-03-21T00:02:27.488Z,8.20
2018-03-21T00:04:55.023Z,8.87
2018-03-21T00:07:22.611Z,8.40
2018-03-21T00:09:50.174Z,7.93
2018-03-21T00:12:17.769Z,7.77
2018-03-21T00:14:45.333Z,8.00
2018-03-21T00:17:12.873Z,7.33
2018-03-21T00:19:40.418Z,7.23
2018-03-21T00:22:08.053Z,7.20
2018-03-21T00:24:35.573Z,8.60
2018-03-21T00:27:03.143Z,8.43
2018-03-21T00:29:30.677Z,7.80
2018-03-21T00:31:58.222Z,7.93
2018-03-21T00:34:25.795Z,8.60
2018-03-21T00:36:53.376Z,8.40
2018-03-21T00:39:21.686Z,8.13
2018-03-21T00:41:49.237Z,8.80
2018-03-21T00:44:16.905Z,7.27
2018-03-21T00:46:44.484Z,8.97
2018-03-21T00:49:12.031Z,7.77
2018-03-21T00:51:39.562Z,8.47
2018-03-21T00:54:07.150Z,8.90
2018-03-21T00:56:34.720Z,8.27
2018-03-21T00:59:02.261Z,7.97
2018-03-21T01:01:29.794Z,7.70
2018-03-21T01:03:58.138Z,7.77
2018-03-21T01:06:25.661Z,8.93
2018-03-21T01:08:53.218Z,8.03
2018-03-21T01:11:20.750Z,9.97
2018-03-21T01:13:48.311Z,7.80
2018-03-21T01:16:16.613Z,8.50
2018-03-21T01:18:44.205Z,7.37
2018-03-21T01:21:12.574Z,7.73
2018-03-21T01:23:40.112Z,8.73
2018-03-21T01:26:07.690Z,7.30
2018-03-21T01:28:35.261Z,7.07
2018-03-21T01:31:02.834Z,8.47
2018-03-21T01:33:30.438Z,6.43
2018-03-21T01:35:58.769Z,6.70
2018-03-21T01:38:26.409Z,7.60
2018-03-21T01:40:53.945Z,6.10
2018-03-21T01:43:21.469Z,5.87
2018-03-21T01:45:49.094Z,6.53
2018-03-21T01:48:16.662Z,6.50
2018-03-21T01:50:44.210Z,6.10
2018-03-21T01:53:11.749Z,6.23
2018-03-21T01:55:39.322Z,7.83
2018-03-21T01:58:06.871Z,6.40
2018-03-21T02:00:34.413Z,5.77
2018-03-21T02:03:02.013Z,6.43
2018-03-21T02:05:29.537Z,5.87
2018-03-21T02:07:57.864Z,5.30
2018-03-21T02:10:25.398Z,5.00
2018-03-21T02:12:52.940Z,6.20
2018-03-21T02:15:20.573Z,5.47
2018-03-21T02:17:48.101Z,6.77
2018-03-21T02:20:15.729Z,6.20
2018-03-21T02:22:43.292Z,5.73
2018-03-21T02:25:10.877Z,5.93
2018-03-21T02:27:38.424Z,6.53
2018-03-21T02:30:05.996Z,5.77
2018-03-21T02:32:33.571Z,8.77
2018-03-21T02:35:01.124Z,6.37
2018-03-21T02:37:28.653Z,5.70
2018-03-21T02:39:56.289Z,7.23
2018-03-21T02:42:23.836Z,7.03
2018-03-21T02:44:52.163Z,5.50
2018-03-21T02:47:19.808Z,9.43
2018-03-21T02:49:47.369Z,7.73
2018-03-21T02:52:14.894Z,6.77
2018-03-21T02:54:43.180Z,7.00
2018-03-21T02:57:10.741Z,7.17
2018-03-21T02:59:39.072Z,7.07
2018-03-21T03:02:06.659Z,5.63
2018-03-21T03:04:34.228Z,8.70
2018-03-21T03:07:01.839Z,5.63
2018-03-21T03:09:29.464Z,8.17
2018-03-21T03:11:56.984Z,6.80
2018-03-21T03:14:24.519Z,7.00
2018-03-21T03:16:52.040Z,6.03
2018-03-21T03:19:19.592Z,6.70
2018-03-21T03:21:47.125Z,6.90
2018-03-21T03:24:14.684Z,6.87
2018-03-21T03:26:42.236Z,6.87
2018-03-21T03:29:09.815Z,9.40
2018-03-21T03:31:37.387Z,6.13
2018-03-21T03:34:04.983Z,7.67
2018-03-21T03:36:32.509Z,7.10
2018-03-21T03:39:00.836Z,7.77
2018-03-21T03:41:28.393Z,6.83
2018-03-21T03:43:55.967Z,8.27
2018-03-21T03:46:23.532Z,7.13
2018-03-21T03:48:51.142Z,7.17
2018-03-21T03:51:18.735Z,6.93
2018-03-21T03:53:46.260Z,7.20
2018-03-21T03:56:13.886Z,6.67
2018-03-21T03:58:41.418Z,6.80
2018-03-21T04:01:08.986Z,12.43
2018-03-21T04:03:36.535Z,6.90
2018-03-21T04:06:04.090Z,11.03
2018-03-21T04:08:31.621Z,11.03
2018-03-21T04:11:00.337Z,9.07
2018-03-21T04:13:27.879Z,8.90
2018-03-21T04:15:55.432Z,8.23
2018-03-21T04:18:22.974Z,8.30
2018-03-21T04:20:51.594Z,7.43
2018-03-21T04:23:19.145Z,6.97
2018-03-21T04:25:46.705Z,9.07
2018-03-21T04:28:14.278Z,7.23
2018-03-21T04:33:23.720Z,8.87
2018-03-21T04:35:51.306Z,7.50
2018-03-21T04:38:18.834Z,10.77
2018-03-21T04:40:46.392Z,9.77
2018-03-21T04:43:13.938Z,8.00
2018-03-21T04:45:42.287Z,9.43
2018-03-21T04:48:09.851Z,10.47
2018-03-21T04:50:37.413Z,7.10
2018-03-21T04:53:04.978Z,11.60
2018-03-21T04:55:32.543Z,9.33
2018-03-21T04:58:00.190Z,12.97
2018-03-21T05:00:27.795Z,8.67
2018-03-21T05:02:55.751Z,9.17
2018-03-21T05:05:23.272Z,9.17
2018-03-21T05:07:50.780Z,9.10
2018-03-21T05:10:18.340Z,9.03
2018-03-21T05:12:45.900Z,10.77
2018-03-21T05:15:13.427Z,10.33
2018-03-21T05:17:40.981Z,9.43
2018-03-21T05:20:08.565Z,10.73
2018-03-21T05:22:36.848Z,11.67
2018-03-21T05:25:05.272Z,11.77
2018-03-21T05:27:32.929Z,9.93
2018-03-21T05:30:00.463Z,12.17
2018-03-21T05:32:28.081Z,14.70
2018-03-21T05:34:55.603Z,13.23
2018-03-21T05:37:23.133Z,15.60
2018-03-21T05:39:50.694Z,17.47
2018-03-21T05:42:18.258Z,16.90
2018-03-21T05:44:45.810Z,16.13
2018-03-21T05:47:13.389Z,15.47
2018-03-21T05:49:40.950Z,15.73
2018-03-21T05:52:08.523Z,17.40
2018-03-21T05:54:36.072Z,14.90
2018-03-21T05:57:03.691Z,13.40
2018-03-21T05:59:31.991Z,13.33
2018-03-21T06:01:59.549Z,15.33
2018-03-21T06:04:27.109Z,14.07
2018-03-21T06:06:54.645Z,15.20
2018-03-21T06:09:22.212Z,15.03
2018-03-21T06:11:50.551Z,13.03
2018-03-21T06:14:18.086Z,15.20
2018-03-21T06:16:45.673Z,19.07
2018-03-21T06:19:13.234Z,15.00
2018-03-21T06:21:40.776Z,14.83
2018-03-21T06:24:08.341Z,15.00
2018-03-21T06:26:35.953Z,14.53
2018-03-21T06:29:04.265Z,18.93
2018-03-21T06:31:31.825Z,16.80
2018-03-21T06:33:59.384Z,14.10
2018-03-21T06:36:27.055Z,14.33
2018-03-21T06:38:54.724Z,16.13
2018-03-21T06:41:22.270Z,12.63
2018-03-21T06:43:49.816Z,15.47
2018-03-21T06:46:17.384Z,13.10
2018-03-21T06:48:45.703Z,14.43
2018-03-21T06:51:13.210Z,12.83
2018-03-21T06:53:40.815Z,12.67
2018-03-21T06:56:08.332Z,15.03
2018-03-21T06:58:35.855Z,13.93
2018-03-21T07:01:03.407Z,11.83
2018-03-21T07:03:30.959Z,14.87
2018-03-21T07:05:58.642Z,14.17
2018-03-21T07:08:26.964Z,11.13
2018-03-21T07:10:54.540Z,16.20
2018-03-21T07:13:22.148Z,13.97
2018-03-21T07:16:01.536Z,10.70
2018-03-21T07:18:29.068Z,15.17
2018-03-21T07:20:57.462Z,11.83
2018-03-21T07:23:24.980Z,10.70
2018-03-21T07:25:53.383Z,11.57
2018-03-21T07:28:20.930Z,11.37
2018-03-21T07:30:48.564Z,11.37
2018-03-21T07:33:16.095Z,13.30
2018-03-21T07:35:43.623Z,13.37
2018-03-21T07:38:11.216Z,12.33
2018-03-21T07:40:38.764Z,11.63
2018-03-21T07:43:06.457Z,12.27
2018-03-21T07:45:34.196Z,10.33
2018-03-21T07:48:01.756Z,11.60
2018-03-21T07:50:29.322Z,9.13
2018-03-21T07:52:56.916Z,10.57
2018-03-21T07:55:25.255Z,13.97
2018-03-21T07:57:52.820Z,15.10
2018-03-21T08:00:20.372Z,10.93
2018-03-21T08:02:48.235Z,12.90
2018-03-21T08:05:15.796Z,8.27
2018-03-21T08:07:43.695Z,8.13
2018-03-21T08:10:11.321Z,10.70
2018-03-21T08:12:38.903Z,10.00
2018-03-21T08:15:06.491Z,8.53
2018-03-21T08:17:34.866Z,9.97
2018-03-21T08:20:03.179Z,8.20
2018-03-21T08:22:30.780Z,5.63
2018-03-21T08:24:58.319Z,6.70
2018-03-21T08:27:25.860Z,6.53
2018-03-21T08:29:53.438Z,8.87
2018-03-21T08:32:21.020Z,6.50
2018-03-21T08:34:49.414Z,8.27
2018-03-21T08:37:17.021Z,9.27
2018-03-21T08:39:44.651Z,10.47
2018-03-21T08:42:12.203Z,6.67
2018-03-21T08:44:40.644Z,11.03
2018-03-21T08:47:08.516Z,6.63
2018-03-21T08:49:36.178Z,5.57
2018-03-21T08:52:03.752Z,5.80
2018-03-21T08:54:31.395Z,7.17
2018-03-21T08:56:58.921Z,7.53
2018-03-21T08:59:26.464Z,5.07
2018-03-21T09:01:54.085Z,6.20
2018-03-21T09:04:21.647Z,5.03
2018-03-21T09:06:49.239Z,8.10
2018-03-21T09:09:17.563Z,6.00
2018-03-21T09:11:45.186Z,9.17
2018-03-21T09:14:12.790Z,7.23
2018-03-21T09:16:40.621Z,6.73
2018-03-21T09:19:08.260Z,5.77
2018-03-21T09:21:35.858Z,7.20
2018-03-21T09:24:03.389Z,6.90
2018-03-21T09:26:30.992Z,10.73
2018-03-21T09:28:58.773Z,5.60
2018-03-21T09:31:26.384Z,9.87
2018-03-21T09:33:54.759Z,7.90
2018-03-21T09:36:22.793Z,8.13
2018-03-21T09:38:50.319Z,6.43
2018-03-21T09:41:17.910Z,16.13
2018-03-21T09:43:45.513Z,21.27
2018-03-21T09:46:13.226Z,5.87
2018-03-21T09:48:40.862Z,6.10
2018-03-21T09:51:08.406Z,8.53
2018-03-21T09:53:35.928Z,5.47
2018-03-21T09:56:03.685Z,4.90
2018-03-21T09:58:31.233Z,8.73
2018-03-21T10:00:58.852Z,7.10
2018-03-21T10:03:26.459Z,5.83
2018-03-21T10:05:54.014Z,5.63
2018-03-21T10:08:21.579Z,4.60
2018-03-21T10:10:49.136Z,7.97
2018-03-21T10:13:16.740Z,6.20
2018-03-21T10:15:45.072Z,7.00
2018-03-21T10:18:12.632Z,5.87
2018-03-21T10:20:40.190Z,6.07
2018-03-21T10:23:07.770Z,6.33
2018-03-21T10:25:35.348Z,5.83
2018-03-21T10:28:03.010Z,6.50
2018-03-21T10:30:30.643Z,4.40
2018-03-21T10:32:58.217Z,9.27
2018-03-21T10:35:25.880Z,4.50
2018-03-21T10:37:53.423Z,4.10
2018-03-21T10:40:20.997Z,4.60
2018-03-21T10:42:48.576Z,18.17
2018-03-21T10:45:16.164Z,8.17
2018-03-21T10:47:44.606Z,7.37
2018-03-21T10:50:12.143Z,5.17
2018-03-21T10:52:39.904Z,4.87
2018-03-21T10:55:07.514Z,4.77
2018-03-21T10:57:36.854Z,4.77
2018-03-21T11:00:04.381Z,4.33
2018-03-21T11:02:37.422Z,4.33
2018-03-21T11:05:05.031Z,4.03
2018-03-21T11:07:32.639Z,6.07
2018-03-21T11:10:00.190Z,4.07
2018-03-21T11:12:27.760Z,3.60
2018-03-21T11:14:55.356Z,6.50
2018-03-21T11:17:23.160Z,4.37
2018-03-21T11:19:50.733Z,4.00
2018-03-21T11:22:18.262Z,4.73
2018-03-21T11:24:45.807Z,4.33
2018-03-21T11:27:13.396Z,4.10
2018-03-21T11:29:41.658Z,3.97
2018-03-21T11:32:09.226Z,4.83
2018-03-21T11:34:36.765Z,4.50
2018-03-21T11:37:04.444Z,4.83
2018-03-21T11:39:32.035Z,4.63
2018-03-21T11:41:59.712Z,3.97
2018-03-21T11:44:27.301Z,4.47
2018-03-21T11:46:54.822Z,3.87
2018-03-21T11:49:22.535Z,4.73
2018-03-21T11:51:50.434Z,3.80
2018-03-21T11:54:18.024Z,4.23
2018-03-21T11:56:45.635Z,4.23
2018-03-21T11:59:13.195Z,4.07
2018-03-21T12:01:40.736Z,3.90
2018-03-21T12:04:08.321Z,3.43
2018-03-21T12:06:35.982Z,7.40
2018-03-21T12:09:03.623Z,6.20
2018-03-21T12:11:31.190Z,3.03
2018-03-21T12:13:58.724Z,3.57
2018-03-21T12:16:26.307Z,5.67
2018-03-21T12:18:54.784Z,2.80
2018-03-21T12:21:22.356Z,4.83
2018-03-21T12:23:50.332Z,4.83
2018-03-21T12:26:17.853Z,2.90
2018-03-21T12:28:45.733Z,3.07
2018-03-21T12:31:14.022Z,5.17
2018-03-21T12:33:42.328Z,3.27
2018-03-21T12:36:09.943Z,4.47
2018-03-21T12:38:38.275Z,3.00
2018-03-21T12:41:05.868Z,3.10
2018-03-21T12:43:33.492Z,4.33
2018-03-21T12:46:01.139Z,2.67
2018-03-21T12:48:28.974Z,3.10
2018-03-21T12:50:58.196Z,5.67
2018-03-21T12:53:25.819Z,3.67
2018-03-21T12:55:53.495Z,2.87
2018-03-21T12:58:21.008Z,2.90
2018-03-21T13:00:48.573Z,6.83
2018-03-21T13:03:16.132Z,3.47
2018-03-21T13:05:43.889Z,2.43
2018-03-21T13:08:11.452Z,4.40
2018-03-21T13:10:39.032Z,4.83
2018-03-21T13:13:06.578Z,2.80
2018-03-21T13:15:34.140Z,3.40
2018-03-21T13:18:06.764Z,3.00
2018-03-21T13:20:35.092Z,4.77
2018-03-21T13:23:02.781Z,5.27
2018-03-21T13:25:30.449Z,7.20
2018-03-21T13:27:58.068Z,3.47
2018-03-21T13:30:25.672Z,9.27
2018-03-21T13:32:53.289Z,3.97
2018-03-21T13:35:20.875Z,2.80
2018-03-21T13:37:48.523Z,3.17
2018-03-21T13:40:16.037Z,2.77
2018-03-21T13:42:44.699Z,2.90
2018-03-21T13:45:13.087Z,2.70
2018-03-21T13:47:40.651Z,3.13
2018-03-21T13:50:08.236Z,2.73
2018-03-21T13:52:35.878Z,4.20
2018-03-21T13:55:03.464Z,6.00
2018-03-21T13:57:31.036Z,3.10
2018-03-21T13:59:58.649Z,3.50
2018-03-21T14:02:26.207Z,3.77
2018-03-21T14:04:54.651Z,3.30
2018-03-21T14:07:22.936Z,3.17
2018-03-21T14:09:50.602Z,2.87
2018-03-21T14:12:18.249Z,3.20
2018-03-21T14:14:45.972Z,2.57
2018-03-21T14:17:14.277Z,3.00
2018-03-21T14:19:42.077Z,2.90
2018-03-21T14:22:09.616Z,5.60
2018-03-21T14:24:37.281Z,2.90
2018-03-21T14:27:04.888Z,3.40
2018-03-21T14:29:32.463Z,2.80
2018-03-21T14:32:01.407Z,2.80
2018-03-21T14:34:29.001Z,2.43
2018-03-21T14:36:56.761Z,4.27
2018-03-21T14:39:25.048Z,2.90
2018-03-21T14:41:52.948Z,2.67
2018-03-21T14:44:20.565Z,6.43
2018-03-21T14:46:48.083Z,3.83
2018-03-21T14:49:16.547Z,2.70
2018-03-21T14:51:44.134Z,2.70
2018-03-21T14:54:11.739Z,5.10
2018-03-21T14:56:40.083Z,3.00
2018-03-21T15:01:49.675Z,5.60
2018-03-21T15:04:17.279Z,2.53
2018-03-21T15:06:44.840Z,3.10
2018-03-21T15:09:12.368Z,3.97
2018-03-21T15:11:39.983Z,4.60
2018-03-21T15:14:07.711Z,3.87
2018-03-21T15:16:35.256Z,3.37
2018-03-21T15:19:02.998Z,4.53
2018-03-21T15:21:30.526Z,2.47
2018-03-21T15:23:58.084Z,2.73
2018-03-21T15:26:25.785Z,2.40
2018-03-21T15:28:53.330Z,2.53
2018-03-21T15:31:21.768Z,5.27
2018-03-21T15:33:49.424Z,6.07
2018-03-21T15:36:17.030Z,5.77
2018-03-21T15:38:44.626Z,2.90
2018-03-21T15:41:12.866Z,4.20
2018-03-21T15:43:40.507Z,3.20
2018-03-21T15:46:08.102Z,3.00
2018-03-21T15:48:35.736Z,3.47
2018-03-21T15:51:03.302Z,2.57
2018-03-21T15:53:31.072Z,3.43
2018-03-21T15:55:58.668Z,3.30
2018-03-21T15:58:26.242Z,3.47
2018-03-21T16:00:53.944Z,3.57
2018-03-21T16:03:21.516Z,2.63
2018-03-21T16:05:49.076Z,2.67
2018-03-21T16:08:16.629Z,4.13
2018-03-21T16:10:44.187Z,2.90
2018-03-21T16:13:11.790Z,4.03
2018-03-21T16:15:39.355Z,3.20
2018-03-21T16:18:06.932Z,5.33
2018-03-21T16:20:35.426Z,2.80
2018-03-21T16:23:03.090Z,2.77
2018-03-21T16:25:30.843Z,5.87
2018-03-21T16:27:58.374Z,5.93
2018-03-21T16:30:25.951Z,4.43
2018-03-21T16:32:53.530Z,3.63
2018-03-21T16:35:21.189Z,6.40
2018-03-21T16:37:48.783Z,5.87
2018-03-21T16:40:16.355Z,3.50
2018-03-21T16:42:44.652Z,3.40
2018-03-21T16:45:12.273Z,3.27
2018-03-21T16:47:39.836Z,3.10
2018-03-21T16:50:07.457Z,3.63
2018-03-21T16:52:35.113Z,3.23
2018-03-21T16:55:02.676Z,3.73
2018-03-21T16:57:30.236Z,3.33
2018-03-21T16:59:57.895Z,4.10
2018-03-21T17:02:25.505Z,3.23
2018-03-21T17:04:53.077Z,3.30
2018-03-21T17:07:21.423Z,3.97
2018-03-21T17:09:49.787Z,3.23
2018-03-21T17:12:17.338Z,4.60
2018-03-21T17:14:44.996Z,4.87
2018-03-21T17:17:12.639Z,5.07
2018-03-21T17:19:40.265Z,9.07
2018-03-21T17:22:08.613Z,5.83
2018-03-21T17:24:36.141Z,4.23
2018-03-21T17:27:03.743Z,4.27
2018-03-21T17:29:31.361Z,5.13
2018-03-21T17:31:58.940Z,4.23
2018-03-21T17:34:26.620Z,3.97
2018-03-21T17:36:54.174Z,3.97
2018-03-21T17:39:21.716Z,4.60
2018-03-21T17:41:49.286Z,5.00
2018-03-21T17:44:16.871Z,4.77
2018-03-21T17:46:44.445Z,6.53
2018-03-21T17:49:12.036Z,6.40
2018-03-21T17:51:39.584Z,10.30
2018-03-21T17:54:07.198Z,10.80
2018-03-21T17:56:34.774Z,11.30
2018-03-21T17:59:02.346Z,8.23
2018-03-21T18:01:29.978Z,11.57
2018-03-21T18:03:57.559Z,5.83
2018-03-21T18:06:25.099Z,5.23
2018-03-21T18:08:52.664Z,5.67
2018-03-21T18:11:20.275Z,5.73
2018-03-21T18:13:48.947Z,9.73
2018-03-21T18:16:17.385Z,8.17
2018-03-21T18:18:45.058Z,5.87
2018-03-21T18:21:12.609Z,7.50
2018-03-21T18:23:40.372Z,9.00
2018-03-21T18:26:07.976Z,12.33
2018-03-21T18:28:35.600Z,12.43
2018-03-21T18:31:03.165Z,9.70
2018-03-21T18:33:30.718Z,11.13
2018-03-21T18:35:58.235Z,10.57
2018-03-21T18:38:25.787Z,10.67
2018-03-21T18:40:53.400Z,9.47
2018-03-21T18:43:21.025Z,11.13
2018-03-21T18:45:48.572Z,13.67
2018-03-21T18:48:16.152Z,12.10
2018-03-21T18:50:43.741Z,9.80
2018-03-21T18:53:11.256Z,12.10
2018-03-21T18:55:38.801Z,11.60
2018-03-21T18:58:07.209Z,19.87
2018-03-21T19:00:34.735Z,13.17
2018-03-21T19:03:02.298Z,13.10
2018-03-21T19:05:29.875Z,14.33
2018-03-21T19:07:58.505Z,12.10
2018-03-21T19:10:26.046Z,13.93
2018-03-21T19:12:53.649Z,13.40
2018-03-21T19:15:21.230Z,13.80
2018-03-21T19:17:49.548Z,14.53
2018-03-21T19:20:17.113Z,15.03
2018-03-21T19:22:44.670Z,18.83
2018-03-21T19:25:12.224Z,14.60
2018-03-21T19:27:39.765Z,12.70
2018-03-21T19:30:07.344Z,17.80
2018-03-21T19:32:34.924Z,16.27
2018-03-21T19:35:02.525Z,19.50
2018-03-21T19:37:30.108Z,15.23
2018-03-21T19:39:57.700Z,15.27
2018-03-21T19:42:25.227Z,12.97
2018-03-21T19:44:52.784Z,16.10
2018-03-21T19:47:20.311Z,10.43
2018-03-21T19:49:47.926Z,17.17
2018-03-21T19:52:15.454Z,15.33
2018-03-21T19:54:43.329Z,13.23
2018-03-21T19:57:10.942Z,13.77
2018-03-21T19:59:39.420Z,15.40
2018-03-21T20:02:07.035Z,16.20
2018-03-21T20:04:34.591Z,16.63
2018-03-21T20:07:02.203Z,13.77
2018-03-21T20:09:29.867Z,13.17
2018-03-21T20:11:57.441Z,20.03
2018-03-21T20:14:25.099Z,17.97
2018-03-21T20:16:52.678Z,15.80
2018-03-21T20:19:21.029Z,17.27
2018-03-21T20:21:48.616Z,19.70
2018-03-21T20:24:16.176Z,18.10
2018-03-21T20:26:44.528Z,17.90
2018-03-21T20:29:12.075Z,15.80
2018-03-21T20:31:39.623Z,20.27
2018-03-21T20:34:07.197Z,18.27
2018-03-21T20:36:34.752Z,17.57
2018-03-21T20:39:02.275Z,16.37
2018-03-21T20:41:29.848Z,19.17
2018-03-21T20:43:57.426Z,17.70
2018-03-21T20:46:25.183Z,20.37
2018-03-21T20:48:52.697Z,21.23
2018-03-21T20:51:20.255Z,21.03
2018-03-21T20:53:47.767Z,25.37
2018-03-21T20:56:15.352Z,21.77
2018-03-21T20:58:42.900Z,20.50
2018-03-21T21:01:10.463Z,25.53
2018-03-21T21:03:38.008Z,26.50
2018-03-21T21:06:05.566Z,25.47
2018-03-21T21:08:33.097Z,22.63
2018-03-21T21:11:00.949Z,20.00
2018-03-21T21:13:28.514Z,18.00
2018-03-21T21:15:56.120Z,15.10
2018-03-21T21:18:23.731Z,16.97
2018-03-21T21:20:51.292Z,17.10
2018-03-21T21:23:18.944Z,17.27
2018-03-21T21:25:46.526Z,16.07
2018-03-21T21:28:14.084Z,15.67
2018-03-21T21:30:41.650Z,17.77
2018-03-21T21:33:09.243Z,19.53
2018-03-21T21:35:36.779Z,17.50
2018-03-21T21:38:04.346Z,26.23
2018-03-21T21:40:31.965Z,14.53
2018-03-21T21:43:00.284Z,11.93
2018-03-21T21:45:27.819Z,17.83
2018-03-21T21:47:55.377Z,22.50
2018-03-21T21:50:22.933Z,13.73
2018-03-21T21:52:50.468Z,15.03
2018-03-21T21:55:18.816Z,13.47
2018-03-21T21:57:46.362Z,23.63
2018-03-21T22:00:13.937Z,21.50
2018-03-21T22:02:41.455Z,20.90
2018-03-21T22:05:09.057Z,19.47
2018-03-21T22:07:36.613Z,16.83
2018-03-21T22:10:04.128Z,24.83
2018-03-21T22:12:31.691Z,21.80
2018-03-21T22:14:59.219Z,22.73
2018-03-21T22:17:26.836Z,18.57
2018-03-21T22:19:54.369Z,17.30
2018-03-21T22:22:21.928Z,20.63
2018-03-21T22:24:49.583Z,18.03
2018-03-21T22:27:17.888Z,23.00
2018-03-21T22:29:45.460Z,19.27
2018-03-21T22:32:13.004Z,20.57
2018-03-21T22:34:40.572Z,17.90
2018-03-21T22:37:08.128Z,16.63
2018-03-21T22:39:35.675Z,15.97
2018-03-21T22:42:03.247Z,16.27
2018-03-21T22:44:31.117Z,15.53
2018-03-21T22:46:58.646Z,17.70
2018-03-21T22:49:26.179Z,16.17
2018-03-21T22:51:54.847Z,17.47
2018-03-21T22:54:22.476Z,21.17
2018-03-21T22:56:50.745Z,16.57
2018-03-21T22:59:18.344Z,16.60
2018-03-21T23:01:45.898Z,15.77
2018-03-21T23:04:14.203Z,15.70
2018-03-21T23:06:41.772Z,14.97
2018-03-21T23:09:09.360Z,17.30
2018-03-21T23:11:36.935Z,14.57
2018-03-21T23:14:04.469Z,15.83
2018-03-21T23:16:32.034Z,21.17
2018-03-21T23:18:59.611Z,14.27
2018-03-21T23:21:27.142Z,13.90
2018-03-21T23:23:54.748Z,15.73
2018-03-21T23:26:22.293Z,14.77
2018-03-21T23:28:49.852Z,15.37
2018-03-21T23:31:17.413Z,19.43
2018-03-21T23:33:44.981Z,16.57
2018-03-21T23:36:12.552Z,16.13
2018-03-21T23:38:40.162Z,18.60
2018-03-21T23:41:09.043Z,30.10
2018-03-21T23:43:37.351Z,23.20
2018-03-21T23:46:04.929Z,27.67
2018-03-21T23:48:32.483Z,17.63
2018-03-21T23:51:00.140Z,19.27
2018-03-21T23:53:28.416Z,21.27
2018-03-21T23:55:56.189Z,15.73
2018-03-21T23:58:23.765Z,19.90
